createdAt,value
2022-11-16T00:02:17.363Z,47.93
2022-11-16T00:04:45.391Z,46.97
2022-11-16T00:07:13.494Z,54.17
2022-11-16T00:09:43.152Z,46.47
2022-11-16T00:12:14.549Z,57.13
2022-11-16T00:14:42.472Z,55.03
2022-11-16T00:17:10.509Z,52.20
2022-11-16T00:19:38.370Z,40.50
2022-11-16T00:22:06.730Z,43.60
2022-11-16T00:24:34.627Z,53.53
2022-11-16T00:27:03.865Z,45.17
2022-11-16T00:29:31.881Z,50.60
2022-11-16T00:31:59.783Z,42.20
2022-11-16T00:34:27.650Z,49.47
2022-11-16T00:36:55.484Z,54.40
2022-11-16T00:39:23.656Z,44.40
2022-11-16T00:41:51.563Z,38.50
2022-11-16T00:44:20.833Z,49.67
2022-11-16T00:46:48.814Z,46.50
2022-11-16T00:49:16.771Z,51.73
2022-11-16T00:51:44.646Z,55.10
2022-11-16T00:54:12.754Z,39.63
2022-11-16T00:56:41.896Z,40.73
2022-11-16T00:59:09.800Z,43.20
2022-11-16T01:01:39.239Z,45.67
2022-11-16T01:04:07.182Z,41.73
2022-11-16T01:06:35.039Z,47.60
2022-11-16T01:09:03.291Z,47.03
2022-11-16T01:11:49.032Z,50.63
2022-11-16T01:14:17.200Z,42.33
2022-11-16T01:16:46.507Z,46.60
2022-11-16T01:19:14.338Z,51.20
2022-11-16T01:21:42.229Z,48.30
2022-11-16T01:24:13.073Z,43.57
2022-11-16T01:26:41.093Z,46.57
2022-11-16T01:29:09.109Z,51.83
2022-11-16T01:31:37.199Z,48.13
2022-11-16T01:34:06.459Z,50.27
2022-11-16T01:36:36.619Z,38.10
2022-11-16T01:39:06.309Z,49.50
2022-11-16T01:41:34.364Z,47.93
2022-11-16T01:44:04.069Z,46.37
2022-11-16T01:46:32.645Z,47.97
2022-11-16T01:49:06.553Z,47.80
2022-11-16T01:51:36.419Z,44.67
2022-11-16T01:54:07.660Z,58.27
2022-11-16T01:56:37.727Z,44.43
2022-11-16T01:59:06.403Z,52.47
2022-11-16T02:01:34.322Z,41.23
2022-11-16T02:04:02.124Z,55.83
2022-11-16T02:06:41.558Z,46.70
2022-11-16T02:09:47.893Z,46.97
2022-11-16T02:12:35.740Z,50.27
2022-11-16T02:15:13.124Z,50.73
2022-11-16T02:17:49.715Z,50.50
2022-11-16T02:20:46.813Z,49.23
2022-11-16T02:23:50.089Z,55.63
2022-11-16T02:26:34.810Z,53.47
2022-11-16T02:29:17.834Z,42.30
2022-11-16T02:31:51.707Z,48.33
2022-11-16T02:34:22.274Z,48.07
2022-11-16T02:36:54.164Z,53.10
2022-11-16T02:39:27.067Z,45.70
2022-11-16T02:41:58.034Z,68.63
2022-11-16T02:44:31.788Z,52.97
2022-11-16T02:47:05.060Z,52.37
2022-11-16T02:49:36.056Z,48.93
2022-11-16T02:52:05.314Z,53.73
2022-11-16T02:54:33.119Z,63.50
2022-11-16T02:57:29.918Z,51.23
2022-11-16T03:00:00.544Z,56.13
2022-11-16T03:02:33.707Z,51.50
2022-11-16T03:05:08.467Z,47.03
2022-11-16T03:07:43.613Z,61.27
2022-11-16T03:10:33.216Z,52.37
2022-11-16T03:13:02.466Z,52.83
2022-11-16T03:15:32.185Z,41.97
2022-11-16T03:18:01.665Z,59.97
2022-11-16T03:20:33.687Z,49.70
2022-11-16T03:23:05.262Z,51.43
2022-11-16T03:25:38.785Z,48.57
2022-11-16T03:28:14.405Z,52.23
2022-11-16T03:30:46.268Z,55.70
2022-11-16T03:33:19.285Z,53.07
2022-11-16T03:35:56.433Z,50.27
2022-11-16T03:38:26.710Z,50.17
2022-11-16T03:40:58.114Z,52.73
2022-11-16T03:43:28.208Z,48.80
2022-11-16T03:45:58.716Z,56.50
2022-11-16T03:48:26.743Z,46.57
2022-11-16T03:50:54.606Z,49.47
2022-11-16T03:53:22.443Z,57.30
2022-11-16T03:55:50.254Z,63.20
2022-11-16T03:58:18.668Z,53.23
2022-11-16T04:00:46.851Z,61.83
2022-11-16T04:03:16.142Z,56.17
2022-11-16T04:06:02.013Z,49.97
2022-11-16T04:08:47.435Z,56.63
2022-11-16T04:11:33.739Z,47.80
2022-11-16T04:14:19.149Z,59.73
2022-11-16T04:17:04.543Z,57.37
2022-11-16T04:19:56.759Z,56.90
2022-11-16T04:22:48.184Z,62.43
2022-11-16T04:25:20.560Z,68.40
2022-11-16T04:28:06.497Z,65.50
2022-11-16T04:30:48.591Z,88.27
2022-11-16T04:33:34.234Z,62.27
2022-11-16T04:36:20.973Z,61.60
2022-11-16T04:38:48.795Z,71.23
2022-11-16T04:41:30.614Z,72.87
2022-11-16T04:43:58.785Z,64.03
2022-11-16T04:46:44.384Z,73.10
2022-11-16T04:49:12.407Z,67.73
2022-11-16T04:51:41.598Z,63.03
2022-11-16T04:54:09.574Z,69.60
2022-11-16T04:56:37.558Z,77.23
2022-11-16T04:59:05.372Z,79.43
2022-11-16T05:01:50.703Z,81.30
2022-11-16T05:04:18.787Z,73.93
2022-11-16T05:06:48.279Z,74.13
2022-11-16T05:09:16.866Z,82.87
2022-11-16T05:11:44.876Z,76.10
2022-11-16T05:14:15.725Z,81.50
2022-11-16T05:16:43.828Z,74.33
2022-11-16T05:19:29.392Z,77.67
2022-11-16T05:21:58.660Z,76.53
2022-11-16T05:24:34.600Z,83.77
2022-11-16T05:27:03.129Z,90.27
2022-11-16T05:29:31.099Z,65.30
2022-11-16T05:31:59.244Z,82.40
2022-11-16T05:34:28.012Z,67.77
2022-11-16T05:36:56.842Z,90.47
2022-11-16T05:39:26.109Z,82.80
2022-11-16T05:41:54.480Z,90.10
2022-11-16T05:44:22.320Z,79.17
2022-11-16T05:46:50.541Z,78.93
2022-11-16T05:49:19.152Z,90.33
2022-11-16T05:51:48.271Z,95.30
2022-11-16T05:54:19.006Z,83.03
2022-11-16T05:56:48.807Z,85.50
2022-11-16T05:59:19.050Z,90.10
2022-11-16T06:01:47.480Z,83.10
2022-11-16T06:04:15.806Z,87.07
2022-11-16T06:06:43.784Z,83.37
2022-11-16T06:09:12.411Z,90.83
2022-11-16T06:11:40.292Z,91.73
2022-11-16T06:14:09.946Z,88.03
2022-11-16T06:16:37.722Z,93.47
2022-11-16T06:19:05.574Z,83.27
2022-11-16T06:21:33.614Z,101.23
2022-11-16T06:24:02.783Z,87.73
2022-11-16T06:26:30.846Z,100.80
2022-11-16T06:28:58.771Z,91.77
2022-11-16T06:31:27.979Z,98.37
2022-11-16T06:33:55.952Z,97.10
2022-11-16T06:36:23.919Z,96.07
2022-11-16T06:38:51.910Z,87.50
2022-11-16T06:41:20.127Z,99.27
2022-11-16T06:43:48.067Z,89.33
2022-11-16T06:46:16.069Z,90.63
2022-11-16T06:48:45.356Z,94.07
2022-11-16T06:51:13.351Z,106.57
2022-11-16T06:53:41.420Z,105.50
2022-11-16T06:56:14.663Z,96.43
2022-11-16T06:58:43.192Z,95.73
2022-11-16T07:01:13.120Z,98.63
2022-11-16T07:03:41.282Z,99.67
2022-11-16T07:06:12.271Z,117.43
2022-11-16T07:08:40.588Z,109.13
2022-11-16T07:11:10.353Z,93.60
2022-11-16T07:13:39.952Z,112.70
2022-11-16T07:16:09.497Z,105.03
2022-11-16T07:18:39.274Z,116.50
2022-11-16T07:21:08.277Z,104.00
2022-11-16T07:23:38.175Z,103.73
2022-11-16T07:26:07.914Z,107.57
2022-11-16T07:28:36.767Z,125.13
2022-11-16T07:31:06.263Z,116.73
2022-11-16T07:33:34.324Z,112.87
2022-11-16T07:36:03.450Z,102.27
2022-11-16T07:38:33.181Z,100.13
2022-11-16T07:41:05.252Z,104.63
2022-11-16T07:43:35.148Z,106.20
2022-11-16T07:48:52.425Z,110.17
2022-11-16T07:51:21.345Z,109.13
2022-11-16T07:53:49.059Z,103.03
2022-11-16T07:56:18.252Z,97.77
2022-11-16T07:58:46.570Z,114.97
2022-11-16T08:01:16.241Z,78.40
2022-11-16T08:03:45.754Z,114.23
2022-11-16T08:06:28.927Z,101.43
2022-11-16T08:08:58.926Z,115.53
2022-11-16T08:11:30.788Z,99.67
2022-11-16T08:14:01.631Z,93.40
2022-11-16T08:16:29.503Z,95.43
2022-11-16T08:18:57.232Z,82.63
2022-11-16T08:21:25.117Z,97.63
2022-11-16T08:23:58.118Z,89.10
2022-11-16T08:26:28.260Z,86.20
2022-11-16T08:28:57.244Z,87.40
2022-11-16T08:31:26.958Z,84.77
2022-11-16T08:33:55.583Z,87.27
2022-11-16T08:36:23.751Z,85.63
2022-11-16T08:38:52.552Z,93.33
2022-11-16T08:41:22.108Z,79.40
2022-11-16T08:43:53.275Z,77.57
2022-11-16T08:46:21.985Z,70.33
2022-11-16T08:48:50.066Z,71.53
2022-11-16T08:51:20.664Z,73.77
2022-11-16T08:53:49.477Z,67.67
2022-11-16T08:56:19.267Z,69.57
2022-11-16T08:58:50.281Z,77.83
2022-11-16T09:01:24.178Z,82.07
2022-11-16T09:03:53.153Z,73.90
2022-11-16T09:06:22.198Z,61.57
2022-11-16T09:08:50.388Z,66.30
2022-11-16T09:11:20.383Z,69.03
2022-11-16T09:13:49.320Z,64.53
2022-11-16T09:16:17.965Z,54.37
2022-11-16T09:18:48.250Z,60.77
2022-11-16T09:21:18.964Z,60.07
2022-11-16T09:23:47.683Z,56.03
2022-11-16T09:26:19.414Z,67.03
2022-11-16T09:28:47.625Z,65.93
2022-11-16T09:31:20.284Z,50.77
2022-11-16T09:33:52.338Z,50.27
2022-11-16T09:36:20.598Z,54.00
2022-11-16T09:39:28.914Z,47.73
2022-11-16T09:41:49.307Z,35.93
2022-11-16T09:44:35.648Z,43.13
2022-11-16T09:47:04.002Z,25.57
2022-11-16T09:49:39.191Z,35.37
2022-11-16T09:52:12.373Z,33.97
2022-11-16T09:54:45.320Z,22.73
2022-11-16T09:57:20.094Z,33.07
2022-11-16T09:59:50.700Z,31.57
2022-11-16T10:02:25.036Z,28.30
2022-11-16T10:04:58.977Z,30.97
2022-11-16T10:07:32.952Z,31.73
2022-11-16T10:10:00.969Z,29.13
2022-11-16T10:12:36.172Z,34.10
2022-11-16T10:15:30.483Z,28.90
2022-11-16T10:18:15.425Z,35.27
2022-11-16T10:21:02.045Z,33.47
2022-11-16T10:23:42.793Z,34.43
2022-11-16T10:26:21.654Z,34.07
2022-11-16T10:29:00.415Z,39.80
2022-11-16T10:31:46.122Z,31.93
2022-11-16T10:34:20.235Z,29.27
2022-11-16T10:37:03.248Z,37.93
2022-11-16T10:39:34.295Z,39.03
2022-11-16T10:42:07.596Z,34.33
2022-11-16T10:44:41.466Z,32.13
2022-11-16T10:47:20.898Z,27.80
2022-11-16T10:49:57.050Z,30.97
2022-11-16T10:52:27.439Z,35.80
2022-11-16T10:54:58.505Z,29.87
2022-11-16T10:57:28.607Z,36.17
2022-11-16T10:59:57.162Z,34.13
2022-11-16T11:02:54.762Z,29.50
2022-11-16T11:05:22.983Z,33.97
2022-11-16T11:08:01.663Z,34.17
2022-11-16T11:10:31.972Z,36.00
2022-11-16T11:13:24.372Z,31.57
2022-11-16T11:15:53.187Z,23.77
2022-11-16T11:18:29.130Z,27.57
2022-11-16T11:21:10.150Z,25.23
2022-11-16T11:23:46.714Z,28.80
2022-11-16T11:26:35.895Z,29.50
2022-11-16T11:29:16.932Z,30.97
2022-11-16T11:31:47.353Z,30.37
2022-11-16T11:34:20.251Z,30.33
2022-11-16T11:36:51.829Z,31.47
2022-11-16T11:39:36.482Z,33.20
2022-11-16T11:42:22.274Z,30.33
2022-11-16T11:44:57.278Z,34.30
2022-11-16T11:47:59.627Z,35.67
2022-11-16T11:50:40.053Z,33.33
2022-11-16T11:53:20.090Z,35.70
2022-11-16T11:55:51.522Z,38.17
2022-11-16T11:58:22.238Z,36.10
2022-11-16T12:01:02.161Z,37.57
2022-11-16T12:03:51.928Z,34.03
2022-11-16T12:06:32.781Z,37.77
2022-11-16T12:09:20.124Z,29.47
2022-11-16T12:12:08.171Z,34.63
2022-11-16T12:14:58.088Z,30.93
2022-11-16T12:17:34.761Z,33.07
2022-11-16T12:20:17.926Z,39.93
2022-11-16T12:23:04.531Z,38.33
2022-11-16T12:25:42.811Z,43.07
2022-11-16T12:28:26.018Z,35.50
2022-11-16T12:31:29.629Z,34.07
2022-11-16T12:34:06.175Z,34.27
2022-11-16T12:36:41.568Z,36.47
2022-11-16T12:39:23.707Z,32.40
2022-11-16T12:42:09.239Z,35.27
2022-11-16T12:44:58.842Z,27.63
2022-11-16T12:47:40.247Z,34.00
2022-11-16T12:50:25.760Z,31.93
2022-11-16T12:53:09.088Z,33.80
2022-11-16T12:55:45.198Z,29.77
2022-11-16T12:58:25.809Z,33.43
2022-11-16T13:01:12.115Z,31.47
2022-11-16T13:03:47.139Z,35.00
2022-11-16T13:06:20.374Z,29.37
2022-11-16T13:08:58.185Z,34.57
2022-11-16T13:11:29.223Z,28.27
2022-11-16T13:13:59.926Z,29.63
2022-11-16T13:16:30.470Z,28.93
2022-11-16T13:19:00.435Z,29.20
2022-11-16T13:21:44.728Z,25.13
2022-11-16T13:24:33.884Z,32.90
2022-11-16T13:27:25.475Z,30.23
2022-11-16T13:30:00.284Z,31.60
2022-11-16T13:32:44.551Z,26.40
2022-11-16T13:35:15.990Z,26.17
2022-11-16T13:37:45.686Z,28.60
2022-11-16T13:40:30.762Z,29.80
2022-11-16T13:43:17.774Z,27.60
2022-11-16T13:46:01.475Z,28.00
2022-11-16T13:48:35.343Z,24.87
2022-11-16T13:51:06.900Z,26.40
2022-11-16T13:56:29.383Z,27.23
2022-11-16T13:58:58.579Z,25.13
2022-11-16T14:01:27.182Z,23.30
2022-11-16T14:04:39.948Z,29.17
2022-11-16T14:07:30.225Z,27.13
2022-11-16T14:09:58.396Z,26.60
2022-11-16T14:12:57.303Z,22.07
2022-11-16T14:15:34.234Z,25.70
2022-11-16T14:18:22.108Z,29.23
2022-11-16T14:20:58.018Z,24.00
2022-11-16T14:23:34.146Z,22.33
2022-11-16T14:26:13.789Z,26.97
2022-11-16T14:29:00.401Z,28.90
2022-11-16T14:31:32.424Z,29.23
2022-11-16T14:34:01.953Z,26.00
2022-11-16T14:36:40.630Z,19.23
2022-11-16T14:39:26.031Z,21.37
2022-11-16T14:41:55.177Z,20.37
2022-11-16T14:44:27.509Z,21.73
2022-11-16T14:46:55.613Z,25.13
2022-11-16T14:49:26.039Z,22.03
2022-11-16T14:51:59.906Z,26.17
2022-11-16T14:54:36.341Z,24.73
2022-11-16T14:57:05.773Z,24.77
2022-11-16T14:59:41.022Z,24.37
2022-11-16T15:02:20.235Z,22.80
2022-11-16T15:04:49.296Z,23.60
2022-11-16T15:07:19.693Z,39.30
2022-11-16T15:09:50.728Z,27.10
2022-11-16T15:12:38.451Z,27.47
2022-11-16T15:15:13.780Z,21.43
2022-11-16T15:17:44.438Z,23.43
2022-11-16T15:20:21.229Z,26.60
2022-11-16T15:22:53.506Z,19.17
2022-11-16T15:25:27.894Z,21.43
2022-11-16T15:27:56.698Z,22.67
2022-11-16T15:30:27.888Z,30.33
2022-11-16T15:32:56.863Z,20.80
2022-11-16T15:35:28.902Z,20.27
2022-11-16T15:38:06.675Z,19.43
2022-11-16T15:40:36.275Z,20.60
2022-11-16T15:43:06.165Z,17.13
2022-11-16T15:45:35.226Z,15.77
2022-11-16T15:48:05.032Z,20.67
2022-11-16T15:50:35.079Z,20.53
2022-11-16T15:53:04.357Z,17.00
2022-11-16T15:55:35.954Z,17.47
2022-11-16T15:58:14.175Z,24.80
2022-11-16T16:00:43.594Z,18.53
2022-11-16T16:03:21.766Z,12.00
2022-11-16T16:05:50.557Z,15.23
2022-11-16T16:08:32.632Z,16.17
2022-11-16T16:11:11.468Z,17.83
2022-11-16T16:13:42.281Z,17.73
2022-11-16T16:16:37.054Z,18.10
2022-11-16T16:19:09.967Z,16.80
2022-11-16T16:21:44.376Z,15.23
2022-11-16T16:24:42.481Z,15.63
2022-11-16T16:27:18.024Z,15.90
2022-11-16T16:29:49.938Z,15.80
2022-11-16T16:32:25.348Z,17.10
2022-11-16T16:34:57.978Z,19.57
2022-11-16T16:37:28.148Z,19.63
2022-11-16T16:39:56.051Z,20.23
2022-11-16T16:42:25.508Z,16.07
2022-11-16T16:44:53.693Z,16.80
2022-11-16T16:47:22.192Z,17.33
2022-11-16T16:49:50.801Z,16.90
2022-11-16T16:52:19.434Z,21.30
2022-11-16T16:54:48.974Z,14.90
2022-11-16T16:57:18.395Z,14.77
2022-11-16T16:59:48.426Z,16.80
2022-11-16T17:02:17.913Z,22.97
2022-11-16T17:04:46.774Z,17.20
2022-11-16T17:07:15.017Z,12.47
2022-11-16T17:09:43.031Z,15.70
2022-11-16T17:12:11.332Z,14.13
2022-11-16T17:14:39.327Z,17.40
2022-11-16T17:17:08.829Z,15.90
2022-11-16T17:19:36.826Z,15.77
2022-11-16T17:22:05.009Z,18.00
2022-11-16T17:24:33.091Z,16.77
2022-11-16T17:27:06.695Z,15.63
2022-11-16T17:29:35.080Z,16.20
2022-11-16T17:32:08.456Z,17.57
2022-11-16T17:34:40.087Z,15.20
2022-11-16T17:37:08.127Z,14.37
2022-11-16T17:39:36.072Z,15.80
2022-11-16T17:42:04.032Z,14.53
2022-11-16T17:44:32.084Z,10.80
2022-11-16T17:46:59.886Z,18.97
2022-11-16T17:49:28.077Z,14.73
2022-11-16T17:51:57.405Z,16.43
2022-11-16T17:54:25.498Z,15.50
2022-11-16T17:56:53.448Z,19.00
2022-11-16T17:59:24.975Z,15.30
2022-11-16T18:01:57.690Z,15.63
2022-11-16T18:04:25.624Z,12.80
2022-11-16T18:06:53.595Z,15.93
2022-11-16T18:09:22.994Z,16.03
2022-11-16T18:11:51.001Z,11.83
2022-11-16T18:14:19.256Z,12.80
2022-11-16T18:17:15.697Z,13.10
2022-11-16T18:19:44.706Z,15.27
2022-11-16T18:22:13.463Z,11.30
2022-11-16T18:24:42.745Z,11.17
2022-11-16T18:27:11.209Z,11.80
2022-11-16T18:29:39.242Z,13.87
2022-11-16T18:32:07.319Z,17.73
2022-11-16T18:34:35.616Z,10.57
2022-11-16T18:37:04.157Z,11.27
2022-11-16T18:39:32.165Z,9.80
2022-11-16T18:42:02.111Z,9.77
2022-11-16T18:44:30.012Z,9.07
2022-11-16T18:46:57.988Z,9.97
2022-11-16T18:49:25.818Z,13.70
2022-11-16T18:51:54.062Z,9.50
2022-11-16T18:54:22.165Z,9.10
2022-11-16T18:56:50.215Z,12.00
2022-11-16T18:59:19.653Z,7.87
2022-11-16T19:01:47.508Z,12.83
2022-11-16T19:04:15.660Z,8.97
2022-11-16T19:06:43.575Z,8.83
2022-11-16T19:09:11.530Z,7.77
2022-11-16T19:11:39.705Z,9.80
2022-11-16T19:14:08.481Z,11.27
2022-11-16T19:16:41.867Z,9.13
2022-11-16T19:19:13.619Z,10.57
2022-11-16T19:21:42.137Z,6.77
2022-11-16T19:24:10.197Z,8.53
2022-11-16T19:26:38.210Z,11.60
2022-11-16T19:29:06.818Z,12.37
2022-11-16T19:31:35.030Z,7.70
2022-11-16T19:34:06.039Z,8.00
2022-11-16T19:36:35.761Z,7.93
2022-11-16T19:39:03.693Z,10.87
2022-11-16T19:41:34.925Z,9.43
2022-11-16T19:44:02.977Z,8.83
2022-11-16T19:46:34.096Z,9.70
2022-11-16T19:49:02.718Z,9.33
2022-11-16T19:51:33.993Z,6.57
2022-11-16T19:54:03.839Z,9.43
2022-11-16T19:56:31.922Z,11.13
2022-11-16T19:58:59.881Z,9.27
2022-11-16T20:01:29.681Z,8.30
2022-11-16T20:03:59.778Z,10.13
2022-11-16T20:06:29.535Z,10.53
2022-11-16T20:09:00.878Z,7.80
2022-11-16T20:11:30.292Z,6.80
2022-11-16T20:14:01.431Z,9.57
2022-11-16T20:16:35.559Z,9.30
2022-11-16T20:19:07.261Z,8.23
2022-11-16T20:21:37.170Z,7.60
2022-11-16T20:24:31.115Z,14.87
2022-11-16T20:26:59.075Z,7.03
2022-11-16T20:29:26.940Z,8.30
2022-11-16T20:31:55.144Z,34.90
2022-11-16T20:34:23.088Z,8.27
2022-11-16T20:36:51.698Z,9.33
2022-11-16T20:39:21.490Z,8.77
2022-11-16T20:41:51.058Z,8.10
2022-11-16T20:44:22.546Z,9.90
2022-11-16T20:46:52.430Z,10.53
2022-11-16T20:49:20.433Z,9.63
2022-11-16T20:51:50.481Z,7.90
2022-11-16T20:54:18.410Z,10.87
2022-11-16T20:56:48.199Z,9.00
2022-11-16T20:59:20.603Z,9.47
2022-11-16T21:01:51.552Z,7.40
2022-11-16T21:04:20.912Z,10.20
2022-11-16T21:06:48.795Z,10.00
2022-11-16T21:09:28.067Z,10.90
2022-11-16T21:12:38.766Z,7.97
2022-11-16T21:15:11.953Z,9.93
2022-11-16T21:17:39.891Z,10.77
2022-11-16T21:20:27.101Z,11.37
2022-11-16T21:22:56.021Z,9.50
2022-11-16T21:25:23.939Z,9.73
2022-11-16T21:27:55.840Z,9.73
2022-11-16T21:30:56.934Z,9.00
2022-11-16T21:36:14.920Z,7.37
2022-11-16T21:38:44.477Z,8.37
2022-11-16T21:41:16.386Z,7.93
2022-11-16T21:44:13.169Z,8.37
2022-11-16T21:46:43.345Z,10.50
2022-11-16T21:49:11.848Z,10.30
2022-11-16T21:51:44.311Z,9.00
2022-11-16T21:54:12.490Z,6.93
2022-11-16T21:56:46.180Z,13.53
2022-11-16T21:59:15.042Z,11.00
2022-11-16T22:01:59.908Z,8.80
2022-11-16T22:04:46.142Z,14.77
2022-11-16T22:07:36.766Z,8.43
2022-11-16T22:10:09.319Z,10.23
2022-11-16T22:12:37.826Z,8.63
2022-11-16T22:15:08.286Z,10.13
2022-11-16T22:17:37.507Z,9.03
2022-11-16T22:20:14.188Z,11.70
2022-11-16T22:22:42.327Z,13.07
2022-11-16T22:25:26.544Z,7.67
2022-11-16T22:30:45.102Z,8.17
2022-11-16T22:33:17.979Z,7.57
2022-11-16T22:35:48.431Z,9.77
2022-11-16T22:38:16.366Z,12.67
2022-11-16T22:40:49.882Z,8.73
2022-11-16T22:43:17.923Z,7.80
2022-11-16T22:45:51.852Z,9.90
2022-11-16T22:48:21.182Z,8.37
2022-11-16T22:50:49.219Z,13.87
2022-11-16T22:53:17.038Z,12.00
2022-11-16T22:55:45.036Z,7.90
2022-11-16T22:58:12.969Z,7.50
2022-11-16T23:00:42.386Z,13.37
2022-11-16T23:03:10.469Z,7.77
2022-11-16T23:05:40.089Z,13.43
2022-11-16T23:08:08.027Z,11.33
2022-11-16T23:10:56.257Z,9.90
2022-11-16T23:13:41.830Z,11.17
2022-11-16T23:16:10.258Z,10.77
2022-11-16T23:18:52.831Z,9.97
2022-11-16T23:21:39.895Z,13.07
2022-11-16T23:24:28.492Z,9.20
2022-11-16T23:27:17.357Z,8.13
2022-11-16T23:29:45.454Z,11.73
2022-11-16T23:32:16.336Z,9.00
2022-11-16T23:34:44.462Z,12.47
2022-11-16T23:37:13.670Z,7.67
2022-11-16T23:39:41.401Z,10.53
2022-11-16T23:42:32.402Z,17.17
2022-11-16T23:52:54.970Z,7.63
2022-11-16T23:55:27.608Z,11.00
